sensor_id;sensor_type;location;lat;lon;timestamp;P1;durP1;ratioP1;P2;durP2;ratioP2
71196;SDS011;58918;51.652;4.864;2023-10-31T00:00:20;3.58;;;0.70;;
71196;SDS011;58918;51.652;4.864;2023-10-31T00:02:47;2.75;;;0.65;;
71196;SDS011;58918;51.652;4.864;2023-10-31T00:05:14;2.53;;;0.80;;
71196;SDS011;58918;51.652;4.864;2023-10-31T00:07:45;4.22;;;0.57;;
71196;SDS011;58918;51.652;4.864;2023-10-31T00:10:13;4.10;;;0.60;;
71196;SDS011;58918;51.652;4.864;2023-10-31T00:12:40;2.20;;;0.68;;
71196;SDS011;58918;51.652;4.864;2023-10-31T00:15:07;3.65;;;0.80;;
71196;SDS011;58918;51.652;4.864;2023-10-31T00:17:34;2.58;;;0.75;;
71196;SDS011;58918;51.652;4.864;2023-10-31T00:20:01;3.00;;;0.60;;
71196;SDS011;58918;51.652;4.864;2023-10-31T00:22:29;3.35;;;0.60;;
71196;SDS011;58918;51.652;4.864;2023-10-31T00:24:56;2.80;;;0.70;;
71196;SDS011;58918;51.652;4.864;2023-10-31T00:27:23;3.80;;;0.50;;
71196;SDS011;58918;51.652;4.864;2023-10-31T00:29:51;3.03;;;0.73;;
71196;SDS011;58918;51.652;4.864;2023-10-31T00:32:18;3.80;;;0.70;;
71196;SDS011;58918;51.652;4.864;2023-10-31T00:34:45;4.55;;;0.80;;
71196;SDS011;58918;51.652;4.864;2023-10-31T00:37:12;1.83;;;0.50;;
71196;SDS011;58918;51.652;4.864;2023-10-31T00:39:40;1.55;;;0.50;;
71196;SDS011;58918;51.652;4.864;2023-10-31T00:42:07;2.05;;;0.50;;
71196;SDS011;58918;51.652;4.864;2023-10-31T00:44:34;2.90;;;0.70;;
71196;SDS011;58918;51.652;4.864;2023-10-31T00:47:02;3.78;;;0.95;;
71196;SDS011;58918;51.652;4.864;2023-10-31T00:49:31;2.85;;;0.57;;
71196;SDS011;58918;51.652;4.864;2023-10-31T00:51:58;2.10;;;0.68;;
71196;SDS011;58918;51.652;4.864;2023-10-31T00:54:26;3.20;;;0.65;;
71196;SDS011;58918;51.652;4.864;2023-10-31T00:56:53;1.63;;;0.65;;
71196;SDS011;58918;51.652;4.864;2023-10-31T00:59:20;3.35;;;1.05;;
71196;SDS011;58918;51.652;4.864;2023-10-31T01:01:47;2.08;;;0.57;;
71196;SDS011;58918;51.652;4.864;2023-10-31T01:04:15;4.25;;;0.60;;
71196;SDS011;58918;51.652;4.864;2023-10-31T01:06:42;2.28;;;0.80;;
71196;SDS011;58918;51.652;4.864;2023-10-31T01:09:09;3.45;;;0.82;;
71196;SDS011;58918;51.652;4.864;2023-10-31T01:11:37;2.60;;;0.88;;
71196;SDS011;58918;51.652;4.864;2023-10-31T01:14:05;3.05;;;0.73;;
71196;SDS011;58918;51.652;4.864;2023-10-31T01:16:32;3.55;;;0.80;;
71196;SDS011;58918;51.652;4.864;2023-10-31T01:18:59;6.65;;;0.90;;
71196;SDS011;58918;51.652;4.864;2023-10-31T01:21:26;2.92;;;0.77;;
71196;SDS011;58918;51.652;4.864;2023-10-31T01:23:53;2.47;;;0.63;;
71196;SDS011;58918;51.652;4.864;2023-10-31T01:26:21;4.00;;;0.77;;
71196;SDS011;58918;51.652;4.864;2023-10-31T01:28:48;3.28;;;0.80;;
71196;SDS011;58918;51.652;4.864;2023-10-31T01:31:15;4.38;;;1.00;;
71196;SDS011;58918;51.652;4.864;2023-10-31T01:33:42;4.15;;;0.82;;
71196;SDS011;58918;51.652;4.864;2023-10-31T01:36:10;3.83;;;0.90;;
71196;SDS011;58918;51.652;4.864;2023-10-31T01:38:38;3.08;;;0.90;;
71196;SDS011;58918;51.652;4.864;2023-10-31T01:41:06;4.22;;;0.93;;
71196;SDS011;58918;51.652;4.864;2023-10-31T01:43:34;3.40;;;1.00;;
71196;SDS011;58918;51.652;4.864;2023-10-31T01:46:02;5.47;;;1.50;;
71196;SDS011;58918;51.652;4.864;2023-10-31T01:48:30;3.58;;;1.45;;
71196;SDS011;58918;51.652;4.864;2023-10-31T01:51:01;3.03;;;1.02;;
71196;SDS011;58918;51.652;4.864;2023-10-31T01:53:29;3.90;;;1.23;;
71196;SDS011;58918;51.652;4.864;2023-10-31T01:55:57;7.93;;;1.30;;
71196;SDS011;58918;51.652;4.864;2023-10-31T01:58:32;4.60;;;1.17;;
71196;SDS011;58918;51.652;4.864;2023-10-31T02:01:00;3.38;;;1.10;;
71196;SDS011;58918;51.652;4.864;2023-10-31T02:03:28;4.30;;;1.45;;
71196;SDS011;58918;51.652;4.864;2023-10-31T02:05:56;3.55;;;1.05;;
71196;SDS011;58918;51.652;4.864;2023-10-31T02:08:24;4.45;;;1.20;;
71196;SDS011;58918;51.652;4.864;2023-10-31T02:10:51;4.65;;;1.30;;
71196;SDS011;58918;51.652;4.864;2023-10-31T02:13:19;5.13;;;1.20;;
71196;SDS011;58918;51.652;4.864;2023-10-31T02:15:46;6.43;;;1.30;;
71196;SDS011;58918;51.652;4.864;2023-10-31T02:18:13;3.58;;;1.33;;
71196;SDS011;58918;51.652;4.864;2023-10-31T02:20:41;3.35;;;1.15;;
71196;SDS011;58918;51.652;4.864;2023-10-31T02:23:08;3.90;;;1.27;;
71196;SDS011;58918;51.652;4.864;2023-10-31T02:25:35;5.40;;;1.88;;
71196;SDS011;58918;51.652;4.864;2023-10-31T02:28:03;6.03;;;1.73;;
71196;SDS011;58918;51.652;4.864;2023-10-31T02:30:30;3.75;;;1.38;;
71196;SDS011;58918;51.652;4.864;2023-10-31T02:32:57;5.25;;;1.58;;
71196;SDS011;58918;51.652;4.864;2023-10-31T02:35:24;6.55;;;1.95;;
71196;SDS011;58918;51.652;4.864;2023-10-31T02:37:52;4.05;;;1.70;;
71196;SDS011;58918;51.652;4.864;2023-10-31T02:40:19;3.80;;;1.45;;
71196;SDS011;58918;51.652;4.864;2023-10-31T02:42:46;4.85;;;1.70;;
71196;SDS011;58918;51.652;4.864;2023-10-31T02:45:14;5.05;;;1.60;;
71196;SDS011;58918;51.652;4.864;2023-10-31T02:47:41;7.97;;;2.10;;
71196;SDS011;58918;51.652;4.864;2023-10-31T02:50:08;5.50;;;1.95;;
71196;SDS011;58918;51.652;4.864;2023-10-31T02:52:36;6.47;;;1.60;;
71196;SDS011;58918;51.652;4.864;2023-10-31T02:55:03;4.28;;;1.67;;
71196;SDS011;58918;51.652;4.864;2023-10-31T02:57:31;3.53;;;1.60;;
71196;SDS011;58918;51.652;4.864;2023-10-31T02:59:58;4.32;;;1.23;;
71196;SDS011;58918;51.652;4.864;2023-10-31T03:02:25;3.33;;;1.30;;
71196;SDS011;58918;51.652;4.864;2023-10-31T03:04:53;4.57;;;1.90;;
71196;SDS011;58918;51.652;4.864;2023-10-31T03:07:20;6.00;;;1.77;;
71196;SDS011;58918;51.652;4.864;2023-10-31T03:09:47;4.72;;;1.67;;
71196;SDS011;58918;51.652;4.864;2023-10-31T03:12:14;6.22;;;1.75;;
71196;SDS011;58918;51.652;4.864;2023-10-31T03:14:42;4.82;;;1.40;;
71196;SDS011;58918;51.652;4.864;2023-10-31T03:17:09;5.10;;;1.75;;
71196;SDS011;58918;51.652;4.864;2023-10-31T03:19:36;4.03;;;1.30;;
71196;SDS011;58918;51.652;4.864;2023-10-31T03:22:03;3.33;;;1.20;;
71196;SDS011;58918;51.652;4.864;2023-10-31T03:24:32;3.60;;;1.40;;
71196;SDS011;58918;51.652;4.864;2023-10-31T03:26:59;3.67;;;1.38;;
71196;SDS011;58918;51.652;4.864;2023-10-31T03:29:26;3.22;;;1.25;;
71196;SDS011;58918;51.652;4.864;2023-10-31T03:31:54;5.95;;;1.67;;
71196;SDS011;58918;51.652;4.864;2023-10-31T03:34:21;4.53;;;1.75;;
71196;SDS011;58918;51.652;4.864;2023-10-31T03:36:48;3.97;;;1.60;;
71196;SDS011;58918;51.652;4.864;2023-10-31T03:39:16;4.60;;;1.52;;
71196;SDS011;58918;51.652;4.864;2023-10-31T03:41:43;5.65;;;1.40;;
71196;SDS011;58918;51.652;4.864;2023-10-31T03:44:10;3.67;;;1.75;;
71196;SDS011;58918;51.652;4.864;2023-10-31T03:46:37;4.53;;;1.80;;
71196;SDS011;58918;51.652;4.864;2023-10-31T03:49:05;4.70;;;1.58;;
71196;SDS011;58918;51.652;4.864;2023-10-31T03:51:33;4.60;;;1.52;;
71196;SDS011;58918;51.652;4.864;2023-10-31T03:54:00;6.38;;;1.40;;
71196;SDS011;58918;51.652;4.864;2023-10-31T03:56:28;5.38;;;1.17;;
71196;SDS011;58918;51.652;4.864;2023-10-31T03:58:55;4.35;;;1.25;;
71196;SDS011;58918;51.652;4.864;2023-10-31T04:01:22;3.38;;;1.40;;
71196;SDS011;58918;51.652;4.864;2023-10-31T04:03:49;4.72;;;1.52;;
71196;SDS011;58918;51.652;4.864;2023-10-31T04:06:17;4.53;;;1.52;;
71196;SDS011;58918;51.652;4.864;2023-10-31T04:08:44;3.42;;;1.20;;
71196;SDS011;58918;51.652;4.864;2023-10-31T04:11:11;3.40;;;1.30;;
71196;SDS011;58918;51.652;4.864;2023-10-31T04:13:38;4.28;;;1.10;;
71196;SDS011;58918;51.652;4.864;2023-10-31T04:16:06;3.40;;;1.38;;
71196;SDS011;58918;51.652;4.864;2023-10-31T04:18:33;7.80;;;1.63;;
71196;SDS011;58918;51.652;4.864;2023-10-31T04:21:00;4.80;;;1.50;;
71196;SDS011;58918;51.652;4.864;2023-10-31T04:23:27;3.95;;;1.40;;
71196;SDS011;58918;51.652;4.864;2023-10-31T04:25:55;4.78;;;1.75;;
71196;SDS011;58918;51.652;4.864;2023-10-31T04:28:22;3.30;;;1.27;;
71196;SDS011;58918;51.652;4.864;2023-10-31T04:30:49;3.30;;;1.20;;
71196;SDS011;58918;51.652;4.864;2023-10-31T04:33:16;2.85;;;0.98;;
71196;SDS011;58918;51.652;4.864;2023-10-31T04:35:44;6.55;;;1.40;;
71196;SDS011;58918;51.652;4.864;2023-10-31T04:38:11;3.40;;;1.10;;
71196;SDS011;58918;51.652;4.864;2023-10-31T04:40:38;3.53;;;0.90;;
71196;SDS011;58918;51.652;4.864;2023-10-31T04:43:05;3.90;;;1.20;;
71196;SDS011;58918;51.652;4.864;2023-10-31T04:45:32;4.82;;;1.15;;
71196;SDS011;58918;51.652;4.864;2023-10-31T04:48:00;2.30;;;1.00;;
71196;SDS011;58918;51.652;4.864;2023-10-31T04:50:27;4.00;;;1.10;;
71196;SDS011;58918;51.652;4.864;2023-10-31T04:52:54;4.30;;;1.10;;
71196;SDS011;58918;51.652;4.864;2023-10-31T04:55:21;4.20;;;1.40;;
71196;SDS011;58918;51.652;4.864;2023-10-31T04:57:48;5.72;;;1.45;;
71196;SDS011;58918;51.652;4.864;2023-10-31T05:00:16;3.50;;;1.30;;
71196;SDS011;58918;51.652;4.864;2023-10-31T05:02:43;4.95;;;1.40;;
71196;SDS011;58918;51.652;4.864;2023-10-31T05:05:11;3.22;;;1.33;;
71196;SDS011;58918;51.652;4.864;2023-10-31T05:07:38;3.05;;;0.93;;
71196;SDS011;58918;51.652;4.864;2023-10-31T05:10:06;4.03;;;1.23;;
71196;SDS011;58918;51.652;4.864;2023-10-31T05:12:33;4.65;;;1.20;;
71196;SDS011;58918;51.652;4.864;2023-10-31T05:15:00;4.65;;;1.30;;
71196;SDS011;58918;51.652;4.864;2023-10-31T05:17:29;3.33;;;1.30;;
71196;SDS011;58918;51.652;4.864;2023-10-31T05:19:56;3.50;;;1.10;;
71196;SDS011;58918;51.652;4.864;2023-10-31T05:22:23;4.13;;;1.30;;
71196;SDS011;58918;51.652;4.864;2023-10-31T05:24:51;3.72;;;1.48;;
71196;SDS011;58918;51.652;4.864;2023-10-31T05:27:18;6.22;;;1.50;;
71196;SDS011;58918;51.652;4.864;2023-10-31T05:29:45;3.65;;;1.40;;
71196;SDS011;58918;51.652;4.864;2023-10-31T05:32:13;5.28;;;1.38;;
71196;SDS011;58918;51.652;4.864;2023-10-31T05:34:40;7.47;;;1.50;;
71196;SDS011;58918;51.652;4.864;2023-10-31T05:37:08;4.18;;;1.50;;
71196;SDS011;58918;51.652;4.864;2023-10-31T05:39:35;3.72;;;1.30;;
71196;SDS011;58918;51.652;4.864;2023-10-31T05:42:03;3.55;;;1.15;;
71196;SDS011;58918;51.652;4.864;2023-10-31T05:44:30;4.15;;;1.35;;
71196;SDS011;58918;51.652;4.864;2023-10-31T05:46:57;13.07;;;2.00;;
71196;SDS011;58918;51.652;4.864;2023-10-31T05:49:25;4.70;;;1.48;;
71196;SDS011;58918;51.652;4.864;2023-10-31T05:51:52;3.45;;;1.38;;
71196;SDS011;58918;51.652;4.864;2023-10-31T05:54:19;17.17;;;1.70;;
71196;SDS011;58918;51.652;4.864;2023-10-31T05:56:47;5.90;;;1.52;;
71196;SDS011;58918;51.652;4.864;2023-10-31T05:59:14;4.00;;;1.30;;
71196;SDS011;58918;51.652;4.864;2023-10-31T06:01:41;3.67;;;1.27;;
71196;SDS011;58918;51.652;4.864;2023-10-31T06:04:10;6.03;;;1.27;;
71196;SDS011;58918;51.652;4.864;2023-10-31T06:06:37;4.50;;;1.30;;
71196;SDS011;58918;51.652;4.864;2023-10-31T06:09:05;7.47;;;1.30;;
71196;SDS011;58918;51.652;4.864;2023-10-31T06:11:32;4.32;;;1.10;;
71196;SDS011;58918;51.652;4.864;2023-10-31T06:14:00;5.45;;;1.40;;
71196;SDS011;58918;51.652;4.864;2023-10-31T06:16:27;5.43;;;1.20;;
71196;SDS011;58918;51.652;4.864;2023-10-31T06:18:54;6.32;;;1.17;;
71196;SDS011;58918;51.652;4.864;2023-10-31T06:21:21;3.17;;;1.15;;
71196;SDS011;58918;51.652;4.864;2023-10-31T06:23:49;4.85;;;1.00;;
71196;SDS011;58918;51.652;4.864;2023-10-31T06:26:16;3.28;;;1.10;;
71196;SDS011;58918;51.652;4.864;2023-10-31T06:28:43;4.03;;;1.20;;
71196;SDS011;58918;51.652;4.864;2023-10-31T06:31:28;2.85;;;1.10;;
71196;SDS011;58918;51.652;4.864;2023-10-31T06:33:55;4.60;;;1.35;;
71196;SDS011;58918;51.652;4.864;2023-10-31T06:36:22;4.88;;;1.40;;
71196;SDS011;58918;51.652;4.864;2023-10-31T06:38:50;3.95;;;1.42;;
71196;SDS011;58918;51.652;4.864;2023-10-31T06:41:17;2.97;;;1.17;;
71196;SDS011;58918;51.652;4.864;2023-10-31T06:43:44;6.75;;;1.42;;
71196;SDS011;58918;51.652;4.864;2023-10-31T06:46:11;3.28;;;1.15;;
71196;SDS011;58918;51.652;4.864;2023-10-31T06:48:41;4.40;;;1.17;;
71196;SDS011;58918;51.652;4.864;2023-10-31T06:51:08;3.05;;;1.15;;
71196;SDS011;58918;51.652;4.864;2023-10-31T06:53:35;3.45;;;1.08;;
71196;SDS011;58918;51.652;4.864;2023-10-31T06:56:03;5.68;;;1.50;;
71196;SDS011;58918;51.652;4.864;2023-10-31T07:00:59;4.32;;;1.05;;
71196;SDS011;58918;51.652;4.864;2023-10-31T07:03:26;3.88;;;1.10;;
71196;SDS011;58918;51.652;4.864;2023-10-31T07:05:54;4.38;;;1.40;;
71196;SDS011;58918;51.652;4.864;2023-10-31T07:08:22;3.00;;;1.20;;
71196;SDS011;58918;51.652;4.864;2023-10-31T07:10:50;2.58;;;0.90;;
71196;SDS011;58918;51.652;4.864;2023-10-31T07:13:17;3.78;;;1.52;;
71196;SDS011;58918;51.652;4.864;2023-10-31T07:15:44;2.95;;;1.00;;
71196;SDS011;58918;51.652;4.864;2023-10-31T07:18:12;4.00;;;1.25;;
71196;SDS011;58918;51.652;4.864;2023-10-31T07:20:40;5.20;;;0.98;;
71196;SDS011;58918;51.652;4.864;2023-10-31T07:23:07;5.97;;;1.10;;
71196;SDS011;58918;51.652;4.864;2023-10-31T07:25:35;4.07;;;1.10;;
71196;SDS011;58918;51.652;4.864;2023-10-31T07:28:02;2.58;;;1.00;;
71196;SDS011;58918;51.652;4.864;2023-10-31T07:30:30;2.67;;;0.93;;
71196;SDS011;58918;51.652;4.864;2023-10-31T07:32:58;3.38;;;1.20;;
71196;SDS011;58918;51.652;4.864;2023-10-31T07:35:25;2.70;;;1.05;;
71196;SDS011;58918;51.652;4.864;2023-10-31T07:37:53;3.75;;;0.93;;
71196;SDS011;58918;51.652;4.864;2023-10-31T07:40:20;3.33;;;1.10;;
71196;SDS011;58918;51.652;4.864;2023-10-31T07:42:47;3.75;;;1.10;;
71196;SDS011;58918;51.652;4.864;2023-10-31T07:45:14;3.13;;;1.23;;
71196;SDS011;58918;51.652;4.864;2023-10-31T07:47:42;3.08;;;1.00;;
71196;SDS011;58918;51.652;4.864;2023-10-31T07:50:09;3.75;;;0.98;;
71196;SDS011;58918;51.652;4.864;2023-10-31T07:52:36;3.63;;;1.00;;
71196;SDS011;58918;51.652;4.864;2023-10-31T07:55:04;2.90;;;1.00;;
71196;SDS011;58918;51.652;4.864;2023-10-31T07:57:31;2.88;;;1.13;;
71196;SDS011;58918;51.652;4.864;2023-10-31T07:59:59;4.05;;;0.90;;
71196;SDS011;58918;51.652;4.864;2023-10-31T08:02:27;2.42;;;1.05;;
71196;SDS011;58918;51.652;4.864;2023-10-31T08:04:55;2.60;;;0.80;;
71196;SDS011;58918;51.652;4.864;2023-10-31T08:07:22;4.05;;;1.10;;
71196;SDS011;58918;51.652;4.864;2023-10-31T08:09:50;2.30;;;0.80;;
71196;SDS011;58918;51.652;4.864;2023-10-31T08:12:17;2.50;;;0.90;;
71196;SDS011;58918;51.652;4.864;2023-10-31T08:14:44;3.42;;;1.38;;
71196;SDS011;58918;51.652;4.864;2023-10-31T08:17:12;3.92;;;0.90;;
71196;SDS011;58918;51.652;4.864;2023-10-31T08:19:39;2.72;;;0.80;;
71196;SDS011;58918;51.652;4.864;2023-10-31T08:22:06;2.75;;;1.00;;
71196;SDS011;58918;51.652;4.864;2023-10-31T08:24:34;2.47;;;0.90;;
71196;SDS011;58918;51.652;4.864;2023-10-31T08:27:03;3.38;;;0.95;;
71196;SDS011;58918;51.652;4.864;2023-10-31T08:31:58;4.75;;;1.10;;
71196;SDS011;58918;51.652;4.864;2023-10-31T08:34:26;3.85;;;1.05;;
71196;SDS011;58918;51.652;4.864;2023-10-31T08:36:53;2.70;;;0.90;;
71196;SDS011;58918;51.652;4.864;2023-10-31T08:39:22;2.90;;;1.02;;
71196;SDS011;58918;51.652;4.864;2023-10-31T08:41:56;2.70;;;0.82;;
71196;SDS011;58918;51.652;4.864;2023-10-31T08:44:24;4.22;;;0.93;;
71196;SDS011;58918;51.652;4.864;2023-10-31T08:46:51;2.72;;;0.93;;
71196;SDS011;58918;51.652;4.864;2023-10-31T08:49:19;2.35;;;1.00;;
71196;SDS011;58918;51.652;4.864;2023-10-31T08:51:46;3.33;;;0.98;;
71196;SDS011;58918;51.652;4.864;2023-10-31T08:54:13;2.90;;;1.00;;
71196;SDS011;58918;51.652;4.864;2023-10-31T08:56:40;4.22;;;1.10;;
71196;SDS011;58918;51.652;4.864;2023-10-31T08:59:08;4.05;;;1.13;;
71196;SDS011;58918;51.652;4.864;2023-10-31T09:01:35;3.58;;;1.02;;
71196;SDS011;58918;51.652;4.864;2023-10-31T09:04:03;5.32;;;1.02;;
71196;SDS011;58918;51.652;4.864;2023-10-31T09:06:30;6.10;;;1.30;;
71196;SDS011;58918;51.652;4.864;2023-10-31T09:08:57;4.47;;;1.25;;
71196;SDS011;58918;51.652;4.864;2023-10-31T09:11:24;4.07;;;1.33;;
71196;SDS011;58918;51.652;4.864;2023-10-31T09:13:52;3.78;;;1.20;;
71196;SDS011;58918;51.652;4.864;2023-10-31T09:16:19;3.40;;;1.27;;
71196;SDS011;58918;51.652;4.864;2023-10-31T09:18:46;3.90;;;1.60;;
71196;SDS011;58918;51.652;4.864;2023-10-31T09:21:14;6.85;;;1.50;;
71196;SDS011;58918;51.652;4.864;2023-10-31T09:23:41;3.85;;;1.00;;
71196;SDS011;58918;51.652;4.864;2023-10-31T09:26:08;3.53;;;1.33;;
71196;SDS011;58918;51.652;4.864;2023-10-31T09:28:36;3.47;;;1.23;;
71196;SDS011;58918;51.652;4.864;2023-10-31T09:31:05;3.13;;;1.30;;
71196;SDS011;58918;51.652;4.864;2023-10-31T09:33:32;3.63;;;1.58;;
71196;SDS011;58918;51.652;4.864;2023-10-31T09:36:00;4.30;;;1.65;;
71196;SDS011;58918;51.652;4.864;2023-10-31T09:38:28;4.95;;;1.90;;
71196;SDS011;58918;51.652;4.864;2023-10-31T09:40:56;3.97;;;1.90;;
71196;SDS011;58918;51.652;4.864;2023-10-31T09:43:23;4.22;;;1.67;;
71196;SDS011;58918;51.652;4.864;2023-10-31T09:45:50;5.65;;;1.88;;
71196;SDS011;58918;51.652;4.864;2023-10-31T09:48:22;3.97;;;1.60;;
71196;SDS011;58918;51.652;4.864;2023-10-31T09:50:49;4.82;;;1.90;;
71196;SDS011;58918;51.652;4.864;2023-10-31T09:53:16;5.05;;;1.60;;
71196;SDS011;58918;51.652;4.864;2023-10-31T09:55:44;4.13;;;2.05;;
71196;SDS011;58918;51.652;4.864;2023-10-31T09:58:12;4.22;;;1.95;;
71196;SDS011;58918;51.652;4.864;2023-10-31T10:00:39;3.78;;;1.70;;
71196;SDS011;58918;51.652;4.864;2023-10-31T10:03:07;5.70;;;2.03;;
71196;SDS011;58918;51.652;4.864;2023-10-31T10:05:37;6.57;;;2.20;;
71196;SDS011;58918;51.652;4.864;2023-10-31T10:08:06;5.10;;;2.30;;
71196;SDS011;58918;51.652;4.864;2023-10-31T10:10:34;5.03;;;2.25;;
71196;SDS011;58918;51.652;4.864;2023-10-31T10:13:01;5.63;;;2.67;;
71196;SDS011;58918;51.652;4.864;2023-10-31T10:15:30;5.95;;;2.42;;
71196;SDS011;58918;51.652;4.864;2023-10-31T10:17:57;6.13;;;3.20;;
71196;SDS011;58918;51.652;4.864;2023-10-31T10:20:24;5.03;;;2.40;;
71196;SDS011;58918;51.652;4.864;2023-10-31T10:22:51;5.53;;;2.65;;
71196;SDS011;58918;51.652;4.864;2023-10-31T10:25:19;5.55;;;2.70;;
71196;SDS011;58918;51.652;4.864;2023-10-31T10:27:46;6.32;;;3.08;;
71196;SDS011;58918;51.652;4.864;2023-10-31T10:30:14;5.65;;;2.78;;
71196;SDS011;58918;51.652;4.864;2023-10-31T10:32:42;7.05;;;3.03;;
71196;SDS011;58918;51.652;4.864;2023-10-31T10:35:10;6.65;;;3.08;;
71196;SDS011;58918;51.652;4.864;2023-10-31T10:37:37;7.32;;;3.42;;
71196;SDS011;58918;51.652;4.864;2023-10-31T10:40:10;6.47;;;3.13;;
71196;SDS011;58918;51.652;4.864;2023-10-31T10:42:44;8.70;;;3.15;;
71196;SDS011;58918;51.652;4.864;2023-10-31T10:45:15;6.50;;;3.40;;
71196;SDS011;58918;51.652;4.864;2023-10-31T10:47:46;7.45;;;3.33;;
71196;SDS011;58918;51.652;4.864;2023-10-31T10:50:13;8.50;;;3.75;;
71196;SDS011;58918;51.652;4.864;2023-10-31T10:52:44;7.10;;;2.90;;
71196;SDS011;58918;51.652;4.864;2023-10-31T10:55:16;5.72;;;3.00;;
71196;SDS011;58918;51.652;4.864;2023-10-31T11:00:15;6.75;;;3.55;;
71196;SDS011;58918;51.652;4.864;2023-10-31T11:02:43;6.90;;;3.58;;
71196;SDS011;58918;51.652;4.864;2023-10-31T11:05:11;7.07;;;3.38;;
71196;SDS011;58918;51.652;4.864;2023-10-31T11:07:40;6.18;;;3.50;;
71196;SDS011;58918;51.652;4.864;2023-10-31T11:10:07;5.90;;;3.45;;
71196;SDS011;58918;51.652;4.864;2023-10-31T11:12:35;7.05;;;3.65;;
71196;SDS011;58918;51.652;4.864;2023-10-31T11:15:05;8.13;;;3.60;;
71196;SDS011;58918;51.652;4.864;2023-10-31T11:17:37;6.72;;;3.42;;
71196;SDS011;58918;51.652;4.864;2023-10-31T11:20:05;6.85;;;3.55;;
71196;SDS011;58918;51.652;4.864;2023-10-31T11:22:44;7.20;;;3.53;;
71196;SDS011;58918;51.652;4.864;2023-10-31T11:25:15;8.95;;;4.03;;
71196;SDS011;58918;51.652;4.864;2023-10-31T11:27:57;9.50;;;3.88;;
71196;SDS011;58918;51.652;4.864;2023-10-31T11:30:37;8.57;;;3.53;;
71196;SDS011;58918;51.652;4.864;2023-10-31T11:33:05;7.40;;;3.55;;
71196;SDS011;58918;51.652;4.864;2023-10-31T11:35:35;7.15;;;3.67;;
71196;SDS011;58918;51.652;4.864;2023-10-31T11:38:06;6.47;;;3.30;;
71196;SDS011;58918;51.652;4.864;2023-10-31T11:40:34;6.35;;;3.33;;
71196;SDS011;58918;51.652;4.864;2023-10-31T11:43:03;7.70;;;4.15;;
71196;SDS011;58918;51.652;4.864;2023-10-31T11:47:58;7.40;;;3.83;;
71196;SDS011;58918;51.652;4.864;2023-10-31T11:50:25;8.38;;;4.07;;
71196;SDS011;58918;51.652;4.864;2023-10-31T11:53:02;7.18;;;4.28;;
71196;SDS011;58918;51.652;4.864;2023-10-31T11:55:38;6.93;;;3.47;;
71196;SDS011;58918;51.652;4.864;2023-10-31T11:58:19;6.55;;;4.03;;
71196;SDS011;58918;51.652;4.864;2023-10-31T12:00:47;6.20;;;3.35;;
71196;SDS011;58918;51.652;4.864;2023-10-31T12:03:19;7.32;;;3.72;;
71196;SDS011;58918;51.652;4.864;2023-10-31T12:08:30;7.63;;;4.07;;
71196;SDS011;58918;51.652;4.864;2023-10-31T12:13:32;6.50;;;3.42;;
71196;SDS011;58918;51.652;4.864;2023-10-31T12:16:00;7.95;;;3.88;;
71196;SDS011;58918;51.652;4.864;2023-10-31T12:18:27;8.25;;;4.10;;
71196;SDS011;58918;51.652;4.864;2023-10-31T12:20:55;7.13;;;4.18;;
71196;SDS011;58918;51.652;4.864;2023-10-31T12:23:22;7.35;;;4.30;;
71196;SDS011;58918;51.652;4.864;2023-10-31T12:25:50;7.88;;;3.72;;
71196;SDS011;58918;51.652;4.864;2023-10-31T12:28:18;7.68;;;4.28;;
71196;SDS011;58918;51.652;4.864;2023-10-31T12:30:45;8.93;;;4.57;;
71196;SDS011;58918;51.652;4.864;2023-10-31T12:33:13;8.30;;;4.13;;
71196;SDS011;58918;51.652;4.864;2023-10-31T12:35:40;8.00;;;4.43;;
71196;SDS011;58918;51.652;4.864;2023-10-31T12:38:12;8.85;;;3.88;;
71196;SDS011;58918;51.652;4.864;2023-10-31T12:40:39;8.68;;;4.22;;
71196;SDS011;58918;51.652;4.864;2023-10-31T12:43:07;8.48;;;4.53;;
71196;SDS011;58918;51.652;4.864;2023-10-31T12:45:36;7.15;;;4.40;;
71196;SDS011;58918;51.652;4.864;2023-10-31T12:48:07;7.70;;;4.15;;
71196;SDS011;58918;51.652;4.864;2023-10-31T12:50:36;7.30;;;3.85;;
71196;SDS011;58918;51.652;4.864;2023-10-31T12:53:04;7.13;;;4.35;;
71196;SDS011;58918;51.652;4.864;2023-10-31T12:55:39;8.75;;;5.00;;
71196;SDS011;58918;51.652;4.864;2023-10-31T12:58:06;7.63;;;4.88;;
71196;SDS011;58918;51.652;4.864;2023-10-31T13:00:36;7.30;;;4.40;;
71196;SDS011;58918;51.652;4.864;2023-10-31T13:03:05;6.88;;;4.15;;
71196;SDS011;58918;51.652;4.864;2023-10-31T13:05:32;7.88;;;4.72;;
71196;SDS011;58918;51.652;4.864;2023-10-31T13:08:00;7.57;;;4.30;;
71196;SDS011;58918;51.652;4.864;2023-10-31T13:10:32;8.80;;;4.50;;
71196;SDS011;58918;51.652;4.864;2023-10-31T13:13:00;8.10;;;4.25;;
71196;SDS011;58918;51.652;4.864;2023-10-31T13:15:27;8.02;;;4.03;;
71196;SDS011;58918;51.652;4.864;2023-10-31T13:17:55;7.35;;;4.38;;
71196;SDS011;58918;51.652;4.864;2023-10-31T13:20:23;8.43;;;4.68;;
71196;SDS011;58918;51.652;4.864;2023-10-31T13:22:50;7.53;;;4.47;;
71196;SDS011;58918;51.652;4.864;2023-10-31T13:25:18;8.90;;;4.95;;
71196;SDS011;58918;51.652;4.864;2023-10-31T13:27:45;7.95;;;4.22;;
71196;SDS011;58918;51.652;4.864;2023-10-31T13:30:17;7.85;;;4.38;;
71196;SDS011;58918;51.652;4.864;2023-10-31T13:32:44;7.22;;;4.28;;
71196;SDS011;58918;51.652;4.864;2023-10-31T13:35:12;7.55;;;4.25;;
71196;SDS011;58918;51.652;4.864;2023-10-31T13:37:41;7.68;;;3.85;;
71196;SDS011;58918;51.652;4.864;2023-10-31T13:40:08;8.50;;;4.47;;
71196;SDS011;58918;51.652;4.864;2023-10-31T13:42:36;9.18;;;4.30;;
71196;SDS011;58918;51.652;4.864;2023-10-31T13:45:03;7.07;;;4.10;;
71196;SDS011;58918;51.652;4.864;2023-10-31T13:47:32;8.00;;;4.07;;
71196;SDS011;58918;51.652;4.864;2023-10-31T13:50:00;8.15;;;3.70;;
71196;SDS011;58918;51.652;4.864;2023-10-31T13:52:27;8.27;;;4.10;;
71196;SDS011;58918;51.652;4.864;2023-10-31T13:54:55;6.95;;;4.15;;
71196;SDS011;58918;51.652;4.864;2023-10-31T13:57:22;6.88;;;3.70;;
71196;SDS011;58918;51.652;4.864;2023-10-31T13:59:50;6.78;;;4.05;;
71196;SDS011;58918;51.652;4.864;2023-10-31T14:02:17;7.57;;;3.80;;
71196;SDS011;58918;51.652;4.864;2023-10-31T14:04:45;5.70;;;3.53;;
71196;SDS011;58918;51.652;4.864;2023-10-31T14:07:19;5.80;;;3.50;;
71196;SDS011;58918;51.652;4.864;2023-10-31T14:09:48;6.50;;;3.78;;
71196;SDS011;58918;51.652;4.864;2023-10-31T14:12:16;6.18;;;3.47;;
71196;SDS011;58918;51.652;4.864;2023-10-31T14:14:44;5.88;;;3.47;;
71196;SDS011;58918;51.652;4.864;2023-10-31T14:17:16;7.55;;;3.90;;
71196;SDS011;58918;51.652;4.864;2023-10-31T14:19:44;5.53;;;3.20;;
71196;SDS011;58918;51.652;4.864;2023-10-31T14:22:12;6.43;;;3.45;;
71196;SDS011;58918;51.652;4.864;2023-10-31T14:24:40;5.55;;;3.25;;
71196;SDS011;58918;51.652;4.864;2023-10-31T14:27:07;7.45;;;3.38;;
71196;SDS011;58918;51.652;4.864;2023-10-31T14:29:34;9.48;;;3.38;;
71196;SDS011;58918;51.652;4.864;2023-10-31T14:32:08;7.07;;;3.42;;
71196;SDS011;58918;51.652;4.864;2023-10-31T14:34:36;6.40;;;3.42;;
71196;SDS011;58918;51.652;4.864;2023-10-31T14:37:03;8.10;;;3.15;;
71196;SDS011;58918;51.652;4.864;2023-10-31T14:39:32;7.47;;;3.53;;
71196;SDS011;58918;51.652;4.864;2023-10-31T14:41:59;6.40;;;3.15;;
71196;SDS011;58918;51.652;4.864;2023-10-31T14:44:28;8.00;;;3.17;;
71196;SDS011;58918;51.652;4.864;2023-10-31T14:46:55;6.53;;;3.33;;
71196;SDS011;58918;51.652;4.864;2023-10-31T14:49:23;5.70;;;2.85;;
71196;SDS011;58918;51.652;4.864;2023-10-31T14:51:50;6.63;;;3.17;;
71196;SDS011;58918;51.652;4.864;2023-10-31T14:54:17;6.47;;;3.00;;
71196;SDS011;58918;51.652;4.864;2023-10-31T14:56:48;8.35;;;2.92;;
71196;SDS011;58918;51.652;4.864;2023-10-31T14:59:16;8.18;;;3.20;;
71196;SDS011;58918;51.652;4.864;2023-10-31T15:01:43;5.60;;;2.90;;
71196;SDS011;58918;51.652;4.864;2023-10-31T15:04:10;8.48;;;3.05;;
71196;SDS011;58918;51.652;4.864;2023-10-31T15:06:38;7.53;;;3.35;;